Time;durP1;ratioP1;P1;durP2;ratioP2;P2;SDS_P1;SDS_P2;PMS_P1;PMS_P2;Temp;Humidity;BMP_temperature;BMP_pressure;BME280_temperature;BME280_humidity;BME280_pressure;Samples;Min_cycle;Max_cycle;Signal;HPM_P1;HPM_P2
2022/06/28 00:01:26;;;;;;;1.27;1.20;;;;;;;14.98;100.00;97102.19;5060732;28;20230;-56
2022/06/28 00:03:52;;;;;;;2.33;1.10;;;;;;;14.95;100.00;97097.97;5052662;28;20680;-56
2022/06/28 00:06:20;;;;;;;1.37;1.27;;;;;;;14.93;100.00;97101.81;5058384;28;20620;-57
2022/06/28 00:08:47;;;;;;;1.73;1.50;;;;;;;14.90;100.00;97108.28;5051279;28;20298;-56
2022/06/28 00:11:14;;;;;;;1.50;1.13;;;;;;;14.91;100.00;97101.16;5051586;28;20314;-56
2022/06/28 00:13:41;;;;;;;4.53;1.00;;;;;;;14.99;100.00;97103.81;5061623;28;20226;-55
2022/06/28 00:16:06;;;;;;;3.23;1.50;;;;;;;15.00;100.00;97104.66;5064776;28;20233;-56
2022/06/28 00:18:35;;;;;;;3.03;1.20;;;;;;;14.90;100.00;97099.47;5052792;28;20230;-57
2022/06/28 00:21:02;;;;;;;1.40;1.30;;;;;;;14.82;100.00;97102.06;5056214;28;20635;-57
2022/06/28 00:23:31;;;;;;;1.50;1.00;;;;;;;14.76;100.00;97092.91;5058029;28;20203;-57
2022/06/28 00:25:57;;;;;;;1.30;1.20;;;;;;;14.86;100.00;97095.44;5063329;28;20226;-57
2022/06/28 00:28:24;;;;;;;1.17;1.17;;;;;;;14.84;100.00;97089.47;5051623;28;20230;-57
2022/06/28 00:30:51;;;;;;;0.97;0.97;;;;;;;14.74;100.00;97086.03;5051399;28;20229;-57
2022/06/28 00:33:18;;;;;;;1.30;1.20;;;;;;;14.68;100.00;97092.00;5051331;28;20333;-57
2022/06/28 00:35:45;;;;;;;3.97;1.07;;;;;;;14.65;100.00;97089.66;5051043;28;20290;-58
2022/06/28 00:38:11;;;;;;;2.80;1.30;;;;;;;14.64;100.00;97080.84;5050798;28;20223;-57
2022/06/28 00:40:46;;;;;;;1.50;1.40;;;;;;;14.71;100.00;97083.69;5051459;28;20227;-58
2022/06/28 00:43:13;;;;;;;1.10;1.00;;;;;;;14.72;100.00;97088.88;5050874;28;20269;-57
2022/06/28 00:45:40;;;;;;;1.70;1.40;;;;;;;14.68;100.00;97084.03;5052799;28;20297;-54
2022/06/28 00:48:07;;;;;;;2.70;0.93;;;;;;;14.58;100.00;97094.78;5054867;28;20234;-54
2022/06/28 00:50:35;;;;;;;1.43;1.43;;;;;;;14.58;100.00;97094.78;5056693;28;20296;-54
2022/06/28 00:53:03;;;;;;;1.40;1.30;;;;;;;14.67;100.00;97093.00;5057897;28;20215;-53
2022/06/28 00:55:30;;;;;;;1.20;1.10;;;;;;;14.76;100.00;97103.56;5058143;28;20250;-54
2022/06/28 00:58:00;;;;;;;1.13;1.13;;;;;;;14.65;100.00;97109.13;5057791;28;20302;-55
2022/06/28 01:00:27;;;;;;;3.10;1.10;;;;;;;14.61;100.00;97125.56;5066944;28;20209;-54
2022/06/28 01:02:55;;;;;;;1.50;1.40;;;;;;;14.56;100.00;97107.41;5046252;28;20213;-54
2022/06/28 01:05:22;;;;;;;1.30;1.30;;;;;;;14.56;100.00;97109.25;5058183;28;20206;-54
2022/06/28 01:07:50;;;;;;;4.10;1.53;;;;;;;14.55;100.00;97103.09;5058113;28;20384;-54
2022/06/28 01:10:17;;;;;;;1.30;1.23;;;;;;;14.61;100.00;97105.13;5057964;28;20314;-53
2022/06/28 01:12:43;;;;;;;1.00;1.00;;;;;;;14.65;100.00;97105.63;5057688;28;20639;-54
2022/06/28 01:15:11;;;;;;;1.63;1.57;;;;;;;14.73;100.00;97103.03;5057760;28;20298;-54
2022/06/28 01:17:38;;;;;;;1.53;1.20;;;;;;;14.71;100.00;97105.00;5056424;28;20207;-54
2022/06/28 01:20:06;;;;;;;1.60;1.50;;;;;;;14.64;100.00;97107.47;5057295;28;20286;-54
2022/06/28 01:22:39;;;;;;;1.73;1.53;;;;;;;14.62;100.00;97100.63;5058112;28;20209;-54
2022/06/28 01:25:08;;;;;;;1.53;1.43;;;;;;;14.60;100.00;97103.44;5057856;28;20225;-54
2022/06/28 01:27:34;;;;;;;2.33;1.30;;;;;;;14.65;100.00;97100.31;5057826;28;20253;-54
2022/06/28 01:30:01;;;;;;;2.53;1.50;;;;;;;14.65;100.00;97095.81;5057560;28;20322;-55
2022/06/28 01:32:28;;;;;;;1.43;1.33;;;;;;;14.68;100.00;97092.84;5057666;28;20239;-54
2022/06/28 01:34:55;;;;;;;1.60;1.50;;;;;;;14.68;100.00;97100.00;5057425;28;20302;-54
2022/06/28 01:37:22;;;;;;;2.83;1.80;;;;;;;14.69;100.00;97094.53;5057805;28;20215;-53
2022/06/28 01:39:50;;;;;;;2.53;2.07;;;;;;;14.65;100.00;97095.81;5070460;28;20210;-54
2022/06/28 01:42:17;;;;;;;2.30;1.60;;;;;;;14.66;100.00;97094.84;5077596;28;20297;-54
2022/06/28 01:44:45;;;;;;;2.20;2.00;;;;;;;14.70;100.00;97096.16;5076972;28;20298;-54
2022/06/28 01:47:12;;;;;;;2.37;2.00;;;;;;;14.73;100.00;97103.03;5077438;28;20301;-54
2022/06/28 01:49:40;;;;;;;2.53;2.00;;;;;;;14.72;100.00;97102.19;5057311;28;20235;-54
2022/06/28 01:52:10;;;;;;;2.00;1.90;;;;;;;14.83;100.00;97099.28;5057734;28;20215;-54
2022/06/28 01:54:36;;;;;;;2.33;1.90;;;;;;;14.86;100.00;97098.09;5057190;28;20285;-54
2022/06/28 01:57:05;;;;;;;2.40;2.20;;;;;;;14.91;100.00;97107.28;5057424;28;20203;-54
2022/06/28 01:59:31;;;;;;;5.50;2.97;;;;;;;14.93;100.00;97107.97;5057255;28;20225;-55
2022/06/28 02:01:58;;;;;;;3.17;1.83;;;;;;;15.02;100.00;97106.16;5057153;28;20226;-55
2022/06/28 02:04:28;;;;;;;2.70;2.23;;;;;;;15.04;100.00;97098.88;5057263;28;20257;-54
2022/06/28 02:06:55;;;;;;;3.80;2.10;;;;;;;15.11;100.00;97096.41;5071595;28;20183;-54
2022/06/28 02:09:22;;;;;;;2.30;1.90;;;;;;;15.18;100.00;97095.59;5070205;28;20231;-55
2022/06/28 02:11:48;;;;;;;3.33;2.40;;;;;;;15.21;100.00;97092.59;5065491;28;20222;-54
2022/06/28 02:14:16;;;;;;;1.90;1.80;;;;;;;15.16;100.00;97078.13;5057064;28;20303;-55
2022/06/28 02:16:43;;;;;;;2.20;2.10;;;;;;;15.14;100.00;97080.94;5057298;28;20238;-55
2022/06/28 02:19:10;;;;;;;2.93;2.00;;;;;;;15.17;100.00;97075.28;5056676;28;20704;-54
2022/06/28 02:21:37;;;;;;;2.10;1.90;;;;;;;15.22;100.00;97077.47;5056961;28;20299;-55
2022/06/28 02:24:07;;;;;;;2.03;1.93;;;;;;;15.26;100.00;97089.47;5055620;28;20207;-54
2022/06/28 02:26:33;;;;;;;2.17;1.83;;;;;;;15.29;100.00;97086.47;5047129;28;20533;-55
2022/06/28 02:29:00;;;;;;;1.93;1.83;;;;;;;15.28;100.00;97090.13;5054382;28;20203;-54
2022/06/28 02:31:28;;;;;;;2.13;2.03;;;;;;;15.28;100.00;97082.97;5056816;28;20301;-54
2022/06/28 02:33:55;;;;;;;2.43;2.30;;;;;;;15.30;100.00;97086.31;5046865;28;20246;-54
2022/06/28 02:41:51;;;;;;;2.50;2.40;;;;;;;15.35;100.00;97092.00;5055483;28;20206;-54
2022/06/28 02:44:17;;;;;;;2.50;2.23;;;;;;;15.41;100.00;97093.16;5048574;28;20286;-54
2022/06/28 02:46:46;;;;;;;3.00;2.03;;;;;;;15.44;100.00;97101.66;5056792;28;20288;-54
2022/06/28 02:49:14;;;;;;;3.13;2.20;;;;;;;15.42;100.00;97101.00;5055837;28;20596;-55
2022/06/28 02:51:40;;;;;;;2.50;2.30;;;;;;;15.41;100.00;97104.66;5056121;28;20242;-54
2022/06/28 02:54:07;;;;;;;2.40;2.20;;;;;;;15.41;100.00;97098.50;5055982;28;20607;-55
2022/06/28 02:56:34;;;;;;;2.57;2.40;;;;;;;15.47;100.00;97103.19;5056307;28;20294;-54
2022/06/28 02:59:01;;;;;;;2.83;2.63;;;;;;;15.45;100.00;97100.69;5055637;28;20293;-54
2022/06/28 03:01:27;;;;;;;4.23;2.23;;;;;;;15.43;100.00;97096.53;5056286;28;20282;-54
2022/06/28 03:03:55;;;;;;;3.90;2.90;;;;;;;15.45;100.00;97091.84;5056408;28;20586;-54
2022/06/28 03:06:22;;;;;;;2.90;2.70;;;;;;;15.44;100.00;97099.00;5056419;28;20207;-54
2022/06/28 03:08:48;;;;;;;2.90;2.60;;;;;;;15.48;100.00;97104.84;5056155;28;20206;-54
2022/06/28 03:11:15;;;;;;;2.97;2.77;;;;;;;15.51;100.00;97096.59;5055128;28;20310;-55
2022/06/28 03:13:42;;;;;;;3.53;3.23;;;;;;;15.53;100.00;97105.25;5055920;28;20247;-55
2022/06/28 03:16:08;;;;;;;2.87;2.67;;;;;;;15.57;100.00;97106.59;5056100;28;20303;-54
2022/06/28 03:18:35;;;;;;;3.20;3.00;;;;;;;15.60;100.00;97108.94;5068695;28;20237;-54
2022/06/28 03:21:04;;;;;;;3.40;3.20;;;;;;;15.64;100.00;97096.94;5040715;28;20223;-55
2022/06/28 03:23:30;;;;;;;3.57;3.17;;;;;;;15.64;100.00;97101.44;5047921;28;20207;-54
2022/06/28 03:25:57;;;;;;;6.70;6.00;;;;;;;15.70;100.00;97098.09;5055688;28;20239;-54
2022/06/28 03:28:23;;;;;;;6.60;4.70;;;;;;;15.76;100.00;97098.31;5056144;28;20289;-54
2022/06/28 03:30:50;;;;;;;4.60;4.20;;;;;;;15.75;100.00;97080.63;5055766;28;20317;-54
2022/06/28 03:33:18;;;;;;;4.63;4.33;;;;;;;15.78;100.00;97088.28;5068382;28;20264;-53
2022/06/28 03:35:45;;;;;;;6.83;6.30;;;;;;;15.80;100.00;97078.28;5057439;28;20285;-55
2022/06/28 03:38:13;;;;;;;7.80;7.00;;;;;;;15.83;100.00;97094.00;5057178;28;20348;-54
2022/06/28 03:40:39;;;;;;;7.53;6.87;;;;;;;15.86;100.00;97091.00;5057460;28;20234;-54
2022/06/28 03:43:06;;;;;;;7.70;7.00;;;;;;;15.90;100.00;97087.00;5059192;28;20274;-54
2022/06/28 03:45:33;;;;;;;6.37;5.87;;;;;;;15.91;100.00;97083.31;5059814;28;20640;-54
2022/06/28 03:48:00;;;;;;;7.93;7.30;;;;;;;15.88;100.00;97080.97;5080203;28;20206;-54
2022/06/28 03:50:26;;;;;;;8.40;7.60;;;;;;;15.89;100.00;97071.97;5074229;28;20214;-53
2022/06/28 03:52:53;;;;;;;8.00;7.33;;;;;;;15.92;100.00;97076.16;5074913;28;20181;-54
2022/06/28 03:55:21;;;;;;;8.33;7.63;;;;;;;15.91;100.00;97079.81;5092402;28;20207;-54
2022/06/28 03:57:48;;;;;;;7.97;7.17;;;;;;;15.93;100.00;97088.50;5079011;28;20250;-54
2022/06/28 04:00:15;;;;;;;9.00;8.10;;;;;;;15.92;100.00;97076.97;5076958;28;20210;-55
2022/06/28 04:02:41;;;;;;;11.40;8.77;;;;;;;15.92;100.00;97084.97;5070300;28;20222;-54
2022/06/28 04:05:08;;;;;;;11.37;8.33;;;;;;;15.94;100.00;97085.63;5078480;28;20183;-55
2022/06/28 04:07:36;;;;;;;8.57;7.80;;;;;;;15.96;100.00;97087.31;5071858;28;20207;-55
2022/06/28 04:10:03;;;;;;;8.60;7.80;;;;;;;15.98;100.00;97091.47;5061439;28;20279;-55
2022/06/28 04:12:31;;;;;;;9.07;8.17;;;;;;;16.04;100.00;97096.16;5076565;28;20640;-54
2022/06/28 04:14:57;;;;;;;7.23;6.60;;;;;;;16.10;100.00;97105.34;5064289;28;20246;-54
2022/06/28 04:17:24;;;;;;;9.57;8.63;;;;;;;16.12;100.00;97108.69;5058647;28;20214;-55
2022/06/28 04:19:51;;;;;;;8.60;7.80;;;;;;;16.17;100.00;97112.50;5069683;28;20221;-54
2022/06/28 04:22:17;;;;;;;9.53;8.60;;;;;;;16.32;100.00;97110.84;5061840;28;20230;-54
2022/06/28 04:24:44;;;;;;;9.67;8.77;;;;;;;16.44;100.00;97119.34;5052428;28;20227;-54
2022/06/28 04:27:10;;;;;;;10.33;9.40;;;;;;;16.63;100.00;97112.84;5047514;28;20235;-54
2022/06/28 04:29:39;;;;;;;9.23;8.52;;;;;;;16.65;100.00;97105.53;5047264;28;20307;-54
2022/06/28 04:32:06;;;;;;;9.70;8.80;;;;;;;16.57;100.00;97110.88;5051904;28;20322;-53
2022/06/28 04:34:33;;;;;;;9.50;8.57;;;;;;;16.45;100.00;97121.00;5054592;28;20294;-54
2022/06/28 04:37:00;;;;;;;9.60;8.70;;;;;;;16.42;100.00;97124.03;5055427;28;20229;-54
2022/06/28 04:39:26;;;;;;;8.97;8.27;;;;;;;16.42;100.00;97126.69;5054881;28;20238;-54
2022/06/28 04:41:53;;;;;;;8.50;7.70;;;;;;;16.53;100.00;97134.38;5055245;28;20639;-55
2022/06/28 04:44:19;;;;;;;7.45;6.75;;;;;;;16.53;100.00;97131.69;5054779;28;20298;-54
2022/06/28 04:46:48;;;;;;;8.77;7.93;;;;;;;16.46;100.00;97128.03;5055106;28;20253;-54
2022/06/28 04:49:14;;;;;;;7.80;7.10;;;;;;;16.46;100.00;97130.69;5055119;28;20265;-55
2022/06/28 04:51:43;;;;;;;8.73;7.90;;;;;;;16.46;100.00;97119.19;5050216;28;20231;-54
2022/06/28 04:54:10;;;;;;;9.37;8.57;;;;;;;16.45;100.00;97115.66;5046487;28;20359;-54
2022/06/28 04:56:37;;;;;;;10.87;9.03;;;;;;;16.48;100.00;97104.66;5054890;28;20249;-54
2022/06/28 04:59:03;;;;;;;10.33;9.43;;;;;;;16.46;100.00;97095.16;5055161;28;20215;-53
2022/06/28 05:01:31;;;;;;;12.13;10.97;;;;;;;16.41;100.00;97072.47;5054826;28;20695;-54
2022/06/28 05:03:59;;;;;;;11.52;10.38;;;;;;;16.38;100.00;97062.13;5055104;28;20688;-54
2022/06/28 05:06:26;;;;;;;10.55;9.55;;;;;;;16.39;100.00;97057.63;5045224;28;20231;-54
2022/06/28 05:08:55;;;;;;;10.05;9.27;;;;;;;16.41;100.00;97047.59;5047886;28;20670;-54
2022/06/28 05:11:22;;;;;;;10.25;9.35;;;;;;;16.41;100.00;97021.75;5055041;28;20227;-54
2022/06/28 05:13:49;;;;;;;9.70;8.80;;;;;;;16.41;100.00;97010.22;5066341;28;20671;-54
2022/06/28 05:16:16;;;;;;;10.05;9.15;;;;;;;16.35;100.00;96995.75;5057199;28;20611;-54
2022/06/28 05:18:42;;;;;;;9.77;8.98;;;;;;;16.32;100.00;96982.75;5044431;28;20207;-53
2022/06/28 05:21:10;;;;;;;9.07;7.40;;;;;;;16.35;100.00;96973.56;5056162;28;20282;-53
2022/06/28 05:23:37;;;;;;;8.33;7.17;;;;;;;16.33;100.00;96981.72;5064334;28;20241;-53
2022/06/28 05:26:04;;;;;;;6.80;6.20;;;;;;;16.39;100.00;96985.56;5068553;28;20196;-53
2022/06/28 05:28:30;;;;;;;7.10;6.40;;;;;;;16.37;100.00;97006.22;5062109;28;20211;-52
2022/06/28 05:30:57;;;;;;;7.83;6.20;;;;;;;16.38;100.00;96991.88;5081391;28;20207;-54
2022/06/28 05:33:24;;;;;;;6.50;5.90;;;;;;;16.42;100.00;96982.53;5082463;28;20254;-54
2022/06/28 05:35:51;;;;;;;6.63;6.10;;;;;;;16.45;100.00;96963.50;5080290;28;20207;-55
2022/06/28 05:38:19;;;;;;;7.23;6.00;;;;;;;16.49;100.00;96959.50;5093614;28;20218;-53
2022/06/28 05:40:45;;;;;;;8.10;6.03;;;;;;;16.54;100.00;96964.31;5087437;28;20194;-54
2022/06/28 05:43:12;;;;;;;7.57;5.70;;;;;;;16.60;100.00;96980.53;5079174;28;20210;-55
2022/06/28 05:45:39;;;;;;;6.07;5.55;;;;;;;16.66;100.00;96993.19;5050927;28;20246;-55
2022/06/28 05:48:06;;;;;;;6.60;5.17;;;;;;;16.71;100.00;96998.84;5052600;28;20541;-55
2022/06/28 05:50:33;;;;;;;5.40;5.00;;;;;;;16.77;100.00;97002.66;5046423;28;20266;-54
2022/06/28 05:52:59;;;;;;;5.33;4.93;;;;;;;16.86;100.00;97006.97;5045165;28;20270;-54
2022/06/28 05:55:29;;;;;;;5.53;4.97;;;;;;;16.90;100.00;97006.44;5058544;28;20275;-55
2022/06/28 05:57:56;;;;;;;6.35;4.85;;;;;;;17.01;100.00;96983.00;5061398;28;20217;-54
2022/06/28 06:00:22;;;;;;;4.95;4.55;;;;;;;17.12;100.00;96966.59;5068274;28;20187;-54
2022/06/28 06:02:49;;;;;;;5.35;3.80;;;;;;;17.16;100.00;96954.53;5092835;28;20206;-54
2022/06/28 06:05:16;;;;;;;6.43;4.30;;;;;;;17.22;100.00;96964.50;5079082;28;20214;-54
2022/06/28 06:07:43;;;;;;;4.72;4.32;;;;;;;17.25;100.00;96959.66;5081843;28;20202;-53
2022/06/28 06:10:10;;;;;;;4.20;3.83;;;;;;;17.39;100.00;96950.88;5088789;28;20221;-54
2022/06/28 06:12:38;;;;;;;4.03;3.67;;;;;;;17.64;100.00;96964.91;5089993;28;20222;-54
2022/06/28 06:15:06;;;;;;;8.02;4.13;;;;;;;17.63;100.00;96965.94;5077630;28;20191;-53
2022/06/28 06:17:32;;;;;;;4.25;3.85;;;;;;;17.81;100.00;96971.81;5090011;28;20206;-55
2022/06/28 06:19:59;;;;;;;4.03;3.70;;;;;;;17.87;100.00;96976.44;5079512;28;20242;-54
2022/06/28 06:22:26;;;;;;;4.55;3.53;;;;;;;17.82;100.00;96967.28;5079675;28;20190;-55
2022/06/28 06:24:52;;;;;;;4.72;3.50;;;;;;;17.92;100.00;96965.22;5079186;28;20198;-54
2022/06/28 06:27:19;;;;;;;3.65;3.35;;;;;;;17.92;100.00;96967.88;5079363;28;20203;-53
2022/06/28 06:29:47;;;;;;;4.45;3.50;;;;;;;17.95;100.00;96966.69;5056292;28;20200;-55
2022/06/28 06:32:14;;;;;;;3.72;3.28;;;;;;;17.99;100.00;96966.16;5053908;28;20309;-54
2022/06/28 06:34:40;;;;;;;4.03;3.47;;;;;;;17.96;100.00;96960.34;5050733;28;20271;-54
2022/06/28 06:37:07;;;;;;;3.75;3.47;;;;;;;17.89;100.00;96952.16;5053842;28;20656;-55
2022/06/28 06:39:34;;;;;;;3.88;3.47;;;;;;;17.87;100.00;96947.00;5056062;28;20266;-56
2022/06/28 06:42:00;;;;;;;3.85;3.55;;;;;;;17.85;100.00;96938.31;5055629;28;20207;-54
2022/06/28 06:44:27;;;;;;;3.80;3.40;;;;;;;17.76;100.00;96941.25;5065011;28;20611;-55
2022/06/28 06:46:56;;;;;;;5.70;3.60;;;;;;;17.72;100.00;96951.50;5060775;28;20238;-52
2022/06/28 06:49:22;;;;;;;3.88;3.58;;;;;;;17.79;100.00;96952.44;5045551;28;20281;-54
2022/06/28 06:51:49;;;;;;;4.22;3.83;;;;;;;17.79;100.00;96941.72;5049374;28;20636;-54
2022/06/28 06:54:16;;;;;;;3.65;3.35;;;;;;;17.81;100.00;96944.25;5048342;28;20199;-54
2022/06/28 06:56:43;;;;;;;4.03;3.72;;;;;;;17.88;100.00;96935.31;5056448;28;20293;-55
2022/06/28 06:59:11;;;;;;;5.63;4.03;;;;;;;17.95;100.00;96939.94;5044224;28;20265;-55
2022/06/28 07:01:38;;;;;;;4.35;3.95;;;;;;;17.99;100.00;96931.38;5050379;28;20636;-55
2022/06/28 07:04:07;;;;;;;3.58;3.35;;;;;;;18.05;100.00;96929.78;5056344;28;20261;-54
2022/06/28 07:06:33;;;;;;;3.92;3.55;;;;;;;18.10;100.00;96924.72;5049514;28;20204;-54
2022/06/28 07:09:00;;;;;;;4.18;3.78;;;;;;;18.21;100.00;96929.66;5049398;28;20595;-54
2022/06/28 07:11:27;;;;;;;4.43;3.70;;;;;;;18.37;100.00;96950.88;5043046;28;20290;-54
2022/06/28 07:13:55;;;;;;;5.22;3.90;;;;;;;18.46;100.00;96952.44;5042395;28;20255;-53
2022/06/28 07:16:21;;;;;;;6.22;4.18;;;;;;;18.55;100.00;96951.38;5048781;28;20235;-54
2022/06/28 07:18:48;;;;;;;4.20;3.80;;;;;;;18.75;100.00;96949.78;5049243;28;20703;-53
2022/06/28 07:21:16;;;;;;;4.68;4.22;;;;;;;18.84;100.00;96946.00;5049284;28;20235;-53
2022/06/28 07:23:43;;;;;;;3.72;3.53;;;;;;;18.89;100.00;96935.53;5049973;28;20207;-53
2022/06/28 07:26:11;;;;;;;5.38;3.83;;;;;;;18.79;100.00;96929.63;5055687;28;20686;-53
2022/06/28 07:28:37;;;;;;;3.97;3.67;;;;;;;18.74;100.00;96925.88;5042460;28;20231;-53
2022/06/28 07:31:04;;;;;;;4.70;4.20;;;;;;;18.74;100.00;96926.69;5047503;28;20235;-54
2022/06/28 07:33:31;;;;;;;4.00;3.72;;;;;;;18.74;100.00;96929.34;5048709;28;20234;-54
2022/06/28 07:35:59;;;;;;;4.35;4.00;;;;;;;18.74;100.00;96921.31;5044011;28;20290;-54
2022/06/28 07:38:29;;;;;;;5.07;4.05;;;;;;;18.73;100.00;96908.97;5042103;28;20235;-54
2022/06/28 07:40:56;;;;;;;3.90;3.60;;;;;;;18.67;100.00;96903.53;5046863;28;20203;-53
2022/06/28 07:43:23;;;;;;;6.55;3.72;;;;;;;18.66;100.00;96902.69;5048861;28;20234;-54
2022/06/28 07:45:49;;;;;;;3.58;3.28;;;;;;;18.61;100.00;96890.84;5044029;28;20286;-54
2022/06/28 07:48:18;;;;;;;7.10;3.42;;;;;;;18.57;100.00;96877.00;5041989;28;20291;-54
2022/06/28 07:53:30;;;;;;;3.55;3.25;;;;;;;18.53;100.00;96856.97;5041866;28;20222;-53
2022/06/28 07:55:58;;;;;;;4.57;3.10;;;;;;;18.51;100.00;96848.31;5042709;28;20258;-53
2022/06/28 07:58:25;;;;;;;3.13;2.97;;;;;;;18.45;100.00;96838.31;5055000;28;20275;-52
2022/06/28 08:00:52;;;;;;;4.43;3.15;;;;;;;18.48;100.00;96855.84;5064719;28;20199;-55
2022/06/28 08:03:19;;;;;;;3.50;3.20;;;;;;;18.50;100.00;96860.00;5085044;28;20241;-53
2022/06/28 08:05:45;;;;;;;2.50;2.40;;;;;;;18.58;100.00;96859.94;5064023;28;20245;-53
2022/06/28 08:08:12;;;;;;;4.00;3.65;;;;;;;18.63;100.00;96873.59;5072976;28;20203;-54
2022/06/28 08:10:40;;;;;;;4.18;2.97;;;;;;;18.69;100.00;96886.25;5057398;28;20656;-54
2022/06/28 08:13:07;;;;;;;3.10;2.90;;;;;;;18.68;100.00;96891.78;5050122;28;20255;-55
2022/06/28 08:15:34;;;;;;;9.98;2.90;;;;;;;18.66;100.00;96889.28;5048745;28;20217;-54
2022/06/28 08:18:00;;;;;;;4.32;2.90;;;;;;;18.68;100.00;96876.53;5047969;28;20627;-53
2022/06/28 08:20:31;;;;;;;3.65;3.17;;;;;;;18.58;100.00;96867.97;5035250;28;20231;-53
2022/06/28 08:22:57;;;;;;;3.20;2.95;;;;;;;18.64;100.00;96871.72;5055259;28;20195;-54
2022/06/28 08:25:24;;;;;;;5.00;2.75;;;;;;;18.67;100.00;96880.22;5047909;28;20290;-54
2022/06/28 08:27:52;;;;;;;3.47;2.83;;;;;;;18.70;100.00;96861.13;5047233;28;20207;-54
2022/06/28 08:30:19;;;;;;;3.30;3.00;;;;;;;18.72;100.00;96863.59;5048103;28;20257;-53
2022/06/28 08:32:46;;;;;;;4.07;3.03;;;;;;;18.73;100.00;96876.81;5042844;28;20227;-53
2022/06/28 08:35:13;;;;;;;3.25;2.95;;;;;;;18.71;100.00;96865.44;5040948;28;20204;-53
2022/06/28 08:37:39;;;;;;;3.38;3.05;;;;;;;18.77;100.00;96862.03;5046104;28;20290;-53
2022/06/28 08:40:08;;;;;;;4.78;3.15;;;;;;;18.78;100.00;96869.03;5048022;28;20723;-54
2022/06/28 08:42:37;;;;;;;5.18;3.03;;;;;;;18.84;100.00;96875.50;5044694;28;20213;-54
2022/06/28 08:45:06;;;;;;;5.10;3.10;;;;;;;18.88;100.00;96874.09;5041150;28;20277;-53
2022/06/28 08:47:34;;;;;;;4.63;3.00;;;;;;;18.93;100.00;96860.13;5051227;28;20204;-54
2022/06/28 08:50:05;;;;;;;3.53;3.33;;;;;;;19.03;100.00;96863.31;5072833;28;20255;-53
2022/06/28 08:52:34;;;;;;;3.35;2.80;;;;;;;19.08;100.00;96869.78;5055474;28;20283;-53
2022/06/28 08:55:00;;;;;;;3.47;3.17;;;;;;;19.16;100.00;96879.56;5051063;28;20305;-54
2022/06/28 08:57:30;;;;;;;3.45;3.20;;;;;;;19.15;100.00;96886.75;5045956;28;20321;-53
2022/06/28 08:59:58;;;;;;;2.72;2.50;;;;;;;19.30;100.00;96879.50;5047863;28;20200;-53
2022/06/28 09:02:26;;;;;;;4.68;3.30;;;;;;;19.42;100.00;96884.34;5051777;28;20226;-54
2022/06/28 09:04:54;;;;;;;3.65;3.35;;;;;;;19.50;100.00;96885.06;5054533;28;20219;-54
2022/06/28 09:07:21;;;;;;;3.35;3.05;;;;;;;19.57;98.49;96879.75;5054566;28;20199;-54
2022/06/28 09:09:48;;;;;;;3.00;2.80;;;;;;;19.61;98.11;96876.50;5044291;28;20667;-54
2022/06/28 09:12:15;;;;;;;6.30;3.15;;;;;;;19.72;98.61;96867.94;5046280;28;20208;-55
2022/06/28 09:14:42;;;;;;;3.75;3.30;;;;;;;19.82;98.70;96862.22;5052692;28;20582;-54
2022/06/28 09:17:23;;;;;;;3.45;2.97;;;;;;;19.95;98.38;96848.03;5051905;28;20199;-54
2022/06/28 09:19:54;;;;;;;3.55;3.15;;;;;;;19.90;95.73;96835.22;5047260;28;20230;-56
2022/06/28 09:22:39;;;;;;;2.70;2.50;;;;;;;19.94;95.27;96827.63;5045139;28;20340;-54
2022/06/28 09:25:09;;;;;;;3.22;2.90;;;;;;;19.75;92.81;96829.13;5059316;28;20202;-52
2022/06/28 09:27:36;;;;;;;4.03;2.90;;;;;;;19.95;92.48;96830.09;5059083;28;20217;-54
2022/06/28 09:30:05;;;;;;;3.03;2.72;;;;;;;20.02;93.39;96830.97;5057960;28;20238;-55
2022/06/28 09:32:33;;;;;;;3.35;2.90;;;;;;;20.03;93.02;96827.25;5044345;28;20713;-52
2022/06/28 09:35:03;;;;;;;2.90;2.70;;;;;;;20.07;90.91;96836.56;5044550;28;20287;-54
2022/06/28 09:37:41;;;;;;;3.20;2.67;;;;;;;20.07;91.14;96823.16;5049905;28;20714;-55
2022/06/28 09:40:16;;;;;;;2.88;2.58;;;;;;;20.14;91.58;96801.69;5053596;28;20195;-55
2022/06/28 09:42:46;;;;;;;3.20;2.90;;;;;;;20.22;93.23;96809.59;5057654;28;20199;-55
2022/06/28 09:45:17;;;;;;;2.83;2.63;;;;;;;20.24;93.40;96802.16;5044007;28;20258;-54
2022/06/28 09:47:47;;;;;;;3.10;2.80;;;;;;;20.23;92.91;96801.31;5045902;28;20200;-53
2022/06/28 09:50:20;;;;;;;2.63;2.42;;;;;;;20.17;93.02;96801.31;5050993;28;20564;-56
2022/06/28 09:52:48;;;;;;;3.72;2.55;;;;;;;20.14;92.74;96801.69;5051274;28;20310;-53
2022/06/28 09:55:16;;;;;;;4.35;2.63;;;;;;;20.15;91.62;96812.25;5044805;28;20207;-54
2022/06/28 09:57:44;;;;;;;2.97;2.70;;;;;;;20.00;92.39;96816.06;5044034;28;20246;-53
2022/06/28 10:00:13;;;;;;;2.42;2.30;;;;;;;19.87;93.17;96819.53;5049842;28;20310;-54
2022/06/28 10:02:42;;;;;;;2.97;2.67;;;;;;;19.92;94.01;96818.91;5056444;28;20242;-55
2022/06/28 10:05:09;;;;;;;2.78;2.58;;;;;;;19.90;97.93;96816.44;5048781;28;20211;-55
2022/06/28 10:07:38;;;;;;;2.40;2.10;;;;;;;19.87;98.05;96812.28;5050511;28;20623;-54
2022/06/28 10:10:06;;;;;;;2.60;2.50;;;;;;;19.83;95.93;96805.66;5046006;28;20317;-55
2022/06/28 10:15:18;;;;;;;3.17;2.88;;;;;;;19.73;95.50;96818.56;5045483;28;20215;-54
2022/06/28 10:17:53;;;;;;;3.22;2.88;;;;;;;19.67;94.98;96815.84;5055800;28;20209;-53
2022/06/28 10:20:23;;;;;;;3.08;2.88;;;;;;;19.63;93.15;96820.78;5055510;28;20205;-54
2022/06/28 10:22:51;;;;;;;6.05;2.78;;;;;;;19.61;94.12;96820.16;5050367;28;20680;-53
2022/06/28 10:25:22;;;;;;;2.83;2.63;;;;;;;19.51;93.35;96826.88;5050700;28;20226;-55
2022/06/28 10:27:50;;;;;;;2.80;2.60;;;;;;;19.53;95.37;96830.19;5049659;28;20218;-54
2022/06/28 10:30:19;;;;;;;3.75;2.72;;;;;;;19.51;94.48;96830.41;5050040;28;20209;-53
2022/06/28 10:32:48;;;;;;;4.88;2.97;;;;;;;19.47;93.54;96815.72;5045180;28;20199;-55
2022/06/28 10:35:52;;;;;;;3.00;2.80;;;;;;;19.54;94.59;96811.22;5043879;28;20208;-54
2022/06/28 10:38:20;;;;;;;2.88;2.67;;;;;;;19.57;95.81;96807.31;5043613;28;20294;-55
2022/06/28 10:40:49;;;;;;;3.22;2.88;;;;;;;19.63;94.30;96809.22;5048595;28;20659;-54
2022/06/28 10:43:17;;;;;;;3.05;2.85;;;;;;;19.69;94.06;96806.59;5051685;28;20234;-53
2022/06/28 10:46:06;;;;;;;4.03;2.92;;;;;;;19.73;92.60;96799.78;5048084;28;20208;-54
2022/06/28 10:48:52;;;;;;;3.20;2.65;;;;;;;19.83;93.12;96799.47;5050033;28;20211;-52
2022/06/28 10:51:19;;;;;;;3.42;3.13;;;;;;;19.86;91.99;96805.28;5050621;28;20262;-53
2022/06/28 10:54:07;;;;;;;3.28;3.05;;;;;;;19.86;88.51;96799.06;5048437;28;20747;-54
2022/06/28 10:56:43;;;;;;;3.78;2.97;;;;;;;19.85;90.16;96792.88;5049160;28;20223;-54
2022/06/28 10:59:12;;;;;;;3.28;3.08;;;;;;;19.81;88.34;96796.97;5053761;28;20214;-54
2022/06/28 11:01:58;;;;;;;3.28;2.80;;;;;;;19.79;89.40;96790.97;5065694;28;20202;-54
2022/06/28 11:04:27;;;;;;;2.90;2.70;;;;;;;19.75;89.10;96791.56;5081627;28;20207;-54
2022/06/28 11:06:56;;;;;;;2.58;2.47;;;;;;;19.77;89.39;96795.69;5078844;28;20202;-54
2022/06/28 11:09:49;;;;;;;3.03;2.70;;;;;;;19.71;89.42;96792.97;5054083;28;20667;-54
2022/06/28 11:12:17;;;;;;;3.10;2.80;;;;;;;19.71;89.14;96799.19;5048007;28;20207;-53
2022/06/28 11:14:52;;;;;;;2.88;2.67;;;;;;;19.74;90.49;96798.78;5043600;28;20321;-54
2022/06/28 11:17:22;;;;;;;3.08;2.88;;;;;;;19.78;90.14;96804.59;5042940;28;20282;-54
2022/06/28 11:19:53;;;;;;;2.95;2.67;;;;;;;19.78;91.38;96789.31;5055883;28;20250;-54
2022/06/28 11:22:25;;;;;;;2.92;2.75;;;;;;;19.80;91.80;96794.50;5053712;28;20601;-54
2022/06/28 11:24:53;;;;;;;2.40;2.30;;;;;;;19.81;91.94;96788.91;5046165;28;20234;-54
2022/06/28 11:27:22;;;;;;;3.00;2.80;;;;;;;19.82;93.79;96790.59;5052712;28;20235;-55
2022/06/28 11:30:02;;;;;;;3.33;2.83;;;;;;;19.79;94.35;96782.94;5046315;28;20640;-54
2022/06/28 11:32:31;;;;;;;3.28;2.90;;;;;;;19.72;90.90;96776.69;5042191;28;20194;-53
2022/06/28 11:34:59;;;;;;;3.05;2.85;;;;;;;19.75;92.32;96778.97;5043555;28;20306;-54
2022/06/28 11:37:26;;;;;;;2.30;2.20;;;;;;;19.71;91.09;96785.75;5056283;28;20235;-54
2022/06/28 11:39:58;;;;;;;3.13;2.78;;;;;;;19.68;91.25;96782.63;5056462;28;20674;-55
2022/06/28 11:42:25;;;;;;;2.88;2.50;;;;;;;19.70;92.53;96783.25;5044785;28;20345;-54